Time;durP1;ratioP1;P1;durP2;ratioP2;P2;SDS_P1;SDS_P2;PMS_P1;PMS_P2;Temp;Humidity;BMP_temperature;BMP_pressure;BME280_temperature;BME280_humidity;BME280_pressure;Samples;Min_cycle;Max_cycle;Signal;HPM_P1;HPM_P2
2023/03/11 00:04:30;;;;;;;0.57;0.50;;;4.80;99.90;;;;;;20909568;28;20041;-57
2023/03/11 00:14:32;;;;;;;1.05;0.30;;;4.40;99.90;;;;;;20909950;28;20049;-47
2023/03/11 00:24:33;;;;;;;3.45;0.47;;;4.00;99.90;;;;;;20907786;28;20037;-47
2023/03/11 00:34:35;;;;;;;0.40;0.20;;;3.90;99.90;;;;;;20907837;28;20025;-57
2023/03/11 00:44:37;;;;;;;0.50;0.10;;;3.90;99.90;;;;;;20906842;28;20037;-57
2023/03/11 00:54:38;;;;;;;0.82;0.20;;;3.90;99.90;;;;;;20904491;28;20037;-50
2023/03/11 01:04:40;;;;;;;0.30;0.10;;;3.90;99.90;;;;;;20903730;28;20094;-57
2023/03/11 01:14:41;;;;;;;1.75;0.30;;;3.70;99.90;;;;;;20905456;28;20102;-57
2023/03/11 01:24:44;;;;;;;0.68;0.10;;;3.70;99.90;;;;;;20903595;28;20452;-57
2023/03/11 01:34:45;;;;;;;0.22;0.20;;;3.70;99.90;;;;;;20902664;28;20033;-57
2023/03/11 01:44:47;;;;;;;1.30;0.30;;;3.50;99.90;;;;;;20904230;28;20041;-57
2023/03/11 01:54:50;;;;;;;2.08;0.80;;;3.30;99.90;;;;;;20913389;28;20025;-57
2023/03/11 02:04:53;;;;;;;0.30;0.10;;;3.10;99.90;;;;;;20918094;28;20033;-52
2023/03/11 02:14:59;;;;;;;2.25;0.30;;;3.20;99.90;;;;;;20917115;28;20363;-57
2023/03/11 02:25:25;;;;;;;0.30;0.13;;;3.60;99.90;;;;;;20915906;28;20120;-57
2023/03/11 02:35:28;;;;;;;0.63;0.13;;;3.20;99.90;;;;;;20899968;28;20024;-57
2023/03/11 02:45:31;;;;;;;2.25;0.35;;;2.70;99.90;;;;;;20916267;28;21515;-48
2023/03/11 02:55:33;;;;;;;0.90;0.50;;;2.50;99.90;;;;;;20915386;28;20029;-51
2023/03/11 03:05:35;;;;;;;0.57;0.20;;;2.50;99.90;;;;;;20913203;28;20041;-57
2023/03/11 03:15:37;;;;;;;0.75;0.30;;;2.50;99.90;;;;;;20912383;28;20041;-57
2023/03/11 03:25:43;;;;;;;0.73;0.20;;;2.70;99.90;;;;;;20895062;28;20033;-57
2023/03/11 03:35:45;;;;;;;0.77;0.17;;;2.80;99.90;;;;;;20910728;28;20095;-57
2023/03/11 03:46:01;;;;;;;0.77;0.10;;;3.00;99.90;;;;;;20911486;28;20083;-57
2023/03/11 03:56:10;;;;;;;0.43;0.10;;;3.30;99.90;;;;;;20910555;28;20056;-57
2023/03/11 04:06:24;;;;;;;0.10;0.10;;;3.20;99.90;;;;;;20908403;28;20041;-52
2023/03/11 04:16:32;;;;;;;0.57;0.20;;;3.20;99.90;;;;;;20906875;28;20037;-57
2023/03/11 04:26:41;;;;;;;0.10;0.10;;;3.10;99.90;;;;;;20907037;28;20033;-57
2023/03/11 04:36:52;;;;;;;0.10;0.10;;;3.30;99.90;;;;;;20905789;28;20118;-57
2023/03/11 04:46:56;;;;;;;0.80;0.20;;;3.40;99.90;;;;;;20905126;28;20078;-51
2023/03/11 04:56:58;;;;;;;0.63;0.30;;;3.60;99.90;;;;;;20904675;28;20044;-49
2023/03/11 05:07:00;;;;;;;0.98;0.20;;;3.80;99.90;;;;;;20903580;28;20049;-57
2023/03/11 05:17:01;;;;;;;0.35;0.10;;;4.00;99.90;;;;;;20902931;28;20151;-57
2023/03/11 05:27:04;;;;;;;0.15;0.08;;;3.90;99.90;;;;;;20901733;28;20040;-51
2023/03/11 05:37:08;;;;;;;0.80;0.10;;;3.90;99.90;;;;;;20902471;28;20029;-57
2023/03/11 05:47:09;;;;;;;1.30;0.20;;;3.90;99.90;;;;;;20902477;28;20650;-57
2023/03/11 05:57:18;;;;;;;1.25;0.20;;;4.20;99.90;;;;;;20875764;28;20045;-50
2023/03/11 06:07:20;;;;;;;2.35;0.20;;;4.70;99.90;;;;;;20892052;28;20045;-48
2023/03/11 06:17:23;;;;;;;1.58;0.10;;;4.30;99.90;;;;;;20892262;28;20091;-57
2023/03/11 06:27:25;;;;;;;2.20;0.10;;;3.90;99.90;;;;;;20867125;28;20111;-57
2023/03/11 06:37:28;;;;;;;0.40;0.10;;;3.50;99.90;;;;;;20905205;28;20532;-48
2023/03/11 06:47:31;;;;;;;0.20;0.00;;;4.10;99.90;;;;;;20914529;28;20036;-57
2023/03/11 06:57:34;;;;;;;0.00;0.00;;;4.30;99.90;;;;;;20914809;28;20064;-57
2023/03/11 07:07:39;;;;;;;0.00;0.00;;;4.40;99.90;;;;;;20912766;28;20444;-57
2023/03/11 07:17:41;;;;;;;0.43;0.10;;;4.20;99.90;;;;;;20913337;28;20036;-56
2023/03/11 07:27:43;;;;;;;0.00;0.00;;;5.00;99.90;;;;;;20911410;28;20418;-57
2023/03/11 07:37:45;;;;;;;0.75;0.08;;;6.80;97.30;;;;;;20911908;28;20037;-51
2023/03/11 07:47:46;;;;;;;0.30;0.00;;;8.40;93.30;;;;;;20910201;28;20036;-52
2023/03/11 07:57:48;;;;;;;0.47;0.20;;;9.00;93.30;;;;;;20910476;28;20083;-52
2023/03/11 08:07:50;;;;;;;0.70;0.50;;;9.10;92.10;;;;;;20909420;28;20049;-50
2023/03/11 08:17:51;;;;;;;1.08;0.60;;;9.10;90.60;;;;;;20908652;28;20067;-56
2023/03/11 08:27:53;;;;;;;0.30;0.00;;;9.40;90.40;;;;;;20908133;28;20033;-48
2023/03/11 08:37:54;;;;;;;0.28;0.10;;;9.80;87.60;;;;;;20907355;28;20051;-56
2023/03/11 08:47:56;;;;;;;0.10;0.10;;;10.30;84.70;;;;;;20906446;28;20025;-58
2023/03/11 08:57:58;;;;;;;0.30;0.00;;;10.60;88.50;;;;;;20906359;28;20048;-54
2023/03/11 09:07:59;;;;;;;0.10;0.00;;;11.30;82.30;;;;;;20903807;28;20064;-57
2023/03/11 09:18:02;;;;;;;1.17;0.30;;;11.50;80.50;;;;;;20904051;28;20052;-57
2023/03/11 09:28:03;;;;;;;1.02;0.10;;;11.80;89.20;;;;;;20903881;28;20029;-54
2023/03/11 09:38:05;;;;;;;0.03;0.00;;;12.70;82.80;;;;;;20903013;28;20486;-56
2023/03/11 09:48:31;;;;;;;0.75;0.20;;;12.80;75.90;;;;;;20903962;28;20411;-51
2023/03/11 09:58:47;;;;;;;0.40;0.20;;;12.60;77.00;;;;;;20902566;28;20029;-55
2023/03/11 10:09:26;;;;;;;1.02;0.20;;;13.30;81.70;;;;;;20902337;28;20091;-53
2023/03/11 10:19:43;;;;;;;0.15;0.10;;;13.70;77.80;;;;;;20917655;28;20466;-55
2023/03/11 10:30:17;;;;;;;1.25;0.00;;;14.00;77.20;;;;;;20918020;28;20055;-56
2023/03/11 10:40:29;;;;;;;0.38;0.10;;;14.40;73.70;;;;;;20861061;28;20102;-50
2023/03/11 10:50:34;;;;;;;0.25;0.20;;;13.40;73.40;;;;;;20915663;28;20037;-50
2023/03/11 11:00:36;;;;;;;0.40;0.10;;;13.60;73.10;;;;;;20914927;28;20037;-52
2023/03/11 11:10:55;;;;;;;0.20;0.10;;;14.60;75.80;;;;;;20914955;28;20406;-49
2023/03/11 11:21:12;;;;;;;0.40;0.10;;;15.00;71.90;;;;;;20912236;28;20391;-54
2023/03/11 11:31:23;;;;;;;1.13;0.10;;;14.10;71.40;;;;;;20914980;28;20063;-51
2023/03/11 11:41:28;;;;;;;0.20;0.15;;;13.30;74.10;;;;;;20912202;28;20860;-49
2023/03/11 11:51:46;;;;;;;1.00;0.30;;;14.00;73.70;;;;;;20910728;28;20500;-55
2023/03/11 12:02:03;;;;;;;1.02;0.50;;;14.20;74.10;;;;;;20911285;28;20349;-54
2023/03/11 12:12:26;;;;;;;1.52;0.55;;;14.40;71.90;;;;;;20910376;28;20041;-54
2023/03/11 12:22:59;;;;;;;1.52;1.02;;;14.90;73.60;;;;;;20908491;28;20393;-53
2023/03/11 12:33:11;;;;;;;0.68;0.50;;;15.70;74.80;;;;;;20907205;28;20033;-53
2023/03/11 12:43:33;;;;;;;4.70;2.30;;;15.20;70.70;;;;;;20907020;28;20059;-53
2023/03/11 12:53:49;;;;;;;4.97;3.67;;;15.20;80.00;;;;;;20906568;28;20086;-51
2023/03/11 13:04:19;;;;;;;12.68;7.05;;;16.00;84.90;;;;;;20904971;28;20025;-54
2023/03/11 13:14:28;;;;;;;10.98;7.15;;;16.30;86.70;;;;;;20905292;28;20391;-53
2023/03/11 13:24:31;;;;;;;14.63;10.05;;;16.10;88.60;;;;;;20905081;28;20402;-52
2023/03/11 13:34:41;;;;;;;18.15;12.40;;;16.10;91.60;;;;;;20903113;28;20029;-53
2023/03/11 13:44:45;;;;;;;21.10;13.98;;;15.90;94.10;;;;;;20901201;28;20037;-53
2023/03/11 13:54:54;;;;;;;19.23;13.45;;;15.30;94.70;;;;;;20902216;28;20104;-51
2023/03/11 14:05:05;;;;;;;18.43;12.70;;;14.50;95.60;;;;;;20901996;28;20032;-50
2023/03/11 14:15:17;;;;;;;20.38;14.00;;;13.70;96.50;;;;;;20901767;28;20049;-49
2023/03/11 14:25:29;;;;;;;20.23;13.15;;;13.00;97.70;;;;;;20874063;28;20033;-58
2023/03/11 14:35:32;;;;;;;19.02;12.20;;;12.40;98.00;;;;;;20896013;28;20036;-50
2023/03/11 14:45:38;;;;;;;16.33;11.60;;;12.20;98.10;;;;;;20900284;28;20033;-51
2023/03/11 14:55:49;;;;;;;13.60;8.60;;;12.10;97.80;;;;;;20901606;28;20036;-49
2023/03/11 15:05:53;;;;;;;12.35;7.95;;;12.10;97.00;;;;;;20912934;28;20045;-57
2023/03/11 15:16:00;;;;;;;9.98;6.47;;;12.00;96.50;;;;;;20913821;28;20032;-47
2023/03/11 15:26:03;;;;;;;4.97;3.17;;;11.60;96.70;;;;;;20913032;28;20029;-47
2023/03/11 15:36:05;;;;;;;1.98;1.55;;;12.00;94.50;;;;;;20912322;28;20032;-49
2023/03/11 15:46:09;;;;;;;3.70;2.60;;;12.30;92.30;;;;;;20911273;28;20037;-47
2023/03/11 15:56:15;;;;;;;4.97;2.83;;;12.50;93.30;;;;;;20909782;28;20075;-57
2023/03/11 16:06:17;;;;;;;7.00;4.30;;;12.10;93.00;;;;;;20909473;28;20060;-58
2023/03/11 16:16:19;;;;;;;6.75;4.50;;;11.10;94.80;;;;;;20908293;28;20482;-58
2023/03/11 16:26:22;;;;;;;7.22;3.83;;;10.30;95.50;;;;;;20908521;28;20037;-50
2023/03/11 16:36:23;;;;;;;12.60;6.25;;;9.80;96.10;;;;;;20907303;28;20513;-48
2023/03/11 16:46:25;;;;;;;12.13;7.40;;;9.50;98.20;;;;;;20905990;28;20033;-51
2023/03/11 16:56:27;;;;;;;12.48;8.27;;;9.10;99.90;;;;;;20899769;28;20029;-51
2023/03/11 17:06:29;;;;;;;11.43;8.75;;;8.80;99.90;;;;;;20862452;28;20498;-52
2023/03/11 17:16:34;;;;;;;12.80;9.10;;;8.10;99.90;;;;;;20904457;28;20036;-50
2023/03/11 17:26:36;;;;;;;11.35;7.22;;;7.10;99.90;;;;;;20903785;28;20571;-57
2023/03/11 17:36:37;;;;;;;10.13;7.47;;;6.50;99.90;;;;;;20895850;28;20055;-58
2023/03/11 17:46:39;;;;;;;10.77;7.50;;;6.00;99.90;;;;;;20910377;28;20090;-57
2023/03/11 17:56:41;;;;;;;16.25;10.35;;;5.70;99.90;;;;;;20881202;28;20103;-54
2023/03/11 18:06:43;;;;;;;13.20;9.27;;;5.40;99.90;;;;;;20901859;28;20076;-53
2023/03/11 18:16:44;;;;;;;11.88;6.85;;;5.60;99.90;;;;;;20902115;28;20037;-57
2023/03/11 18:26:46;;;;;;;14.60;8.93;;;5.90;99.90;;;;;;20889887;28;20033;-57
2023/03/11 18:36:48;;;;;;;13.02;7.90;;;5.60;99.90;;;;;;20912001;28;20482;-57
2023/03/11 18:46:50;;;;;;;9.48;7.03;;;5.40;99.90;;;;;;20877725;28;20102;-57
2023/03/11 18:56:52;;;;;;;11.93;7.00;;;5.10;99.90;;;;;;20915129;28;20553;-57
2023/03/11 19:06:53;;;;;;;12.90;7.53;;;5.00;99.90;;;;;;20914026;28;20453;-57
2023/03/11 19:16:55;;;;;;;13.50;8.30;;;5.00;99.90;;;;;;20913488;28;20475;-56
2023/03/11 19:26:56;;;;;;;15.20;7.93;;;4.90;99.90;;;;;;20911875;28;20040;-57
2023/03/11 19:36:58;;;;;;;16.63;8.77;;;4.60;99.90;;;;;;20911413;28;20041;-57
2023/03/11 19:47:00;;;;;;;15.45;9.30;;;4.40;99.90;;;;;;20909442;28;20087;-57
2023/03/11 19:57:01;;;;;;;16.30;9.85;;;4.40;99.90;;;;;;20908663;28;20029;-57
2023/03/11 20:07:04;;;;;;;16.77;10.27;;;4.30;99.90;;;;;;20909075;28;20045;-57
2023/03/11 20:17:06;;;;;;;26.42;11.68;;;4.10;99.90;;;;;;20909130;28;20029;-58
2023/03/11 20:27:08;;;;;;;20.70;12.50;;;4.00;99.90;;;;;;20907432;28;20087;-52
2023/03/11 20:37:10;;;;;;;21.52;12.85;;;4.10;99.90;;;;;;20906327;28;20028;-57
2023/03/11 20:47:12;;;;;;;20.52;11.88;;;4.10;99.90;;;;;;20906287;28;20021;-48
2023/03/11 20:57:13;;;;;;;26.48;12.93;;;4.30;99.90;;;;;;20904520;28;20060;-51
2023/03/11 21:07:15;;;;;;;25.67;14.00;;;4.20;99.90;;;;;;20905057;28;20380;-57
2023/03/11 21:17:17;;;;;;;29.02;14.18;;;3.90;99.90;;;;;;20902588;28;20091;-48
2023/03/11 21:27:24;;;;;;;29.10;16.33;;;3.90;99.90;;;;;;20903064;28;20048;-51
2023/03/11 21:37:27;;;;;;;25.05;15.43;;;3.90;99.90;;;;;;20902720;28;20037;-56
2023/03/11 21:47:28;;;;;;;31.75;17.70;;;3.90;99.90;;;;;;20902383;28;20033;-54
2023/03/11 21:57:30;;;;;;;31.08;17.63;;;3.90;99.90;;;;;;20901267;28;20044;-50
2023/03/11 22:07:31;;;;;;;25.27;15.00;;;3.90;99.90;;;;;;20905908;28;20045;-53
2023/03/11 22:17:33;;;;;;;25.85;16.23;;;3.80;99.90;;;;;;20918730;28;20063;-52
2023/03/11 22:27:35;;;;;;;28.75;17.13;;;3.80;99.90;;;;;;20917429;28;20032;-56
2023/03/11 22:37:36;;;;;;;28.58;17.42;;;4.20;99.90;;;;;;20915238;28;20063;-57
2023/03/11 22:47:38;;;;;;;30.17;18.33;;;4.10;99.90;;;;;;20914883;28;20040;-47
2023/03/11 22:57:39;;;;;;;42.88;22.90;;;3.80;99.90;;;;;;20915098;28;20402;-57
2023/03/11 23:07:41;;;;;;;38.42;22.15;;;3.60;99.90;;;;;;20913844;28;20053;-52
2023/03/11 23:17:43;;;;;;;37.50;20.20;;;3.40;99.90;;;;;;20913876;28;20112;-53
2023/03/11 23:27:45;;;;;;;43.65;22.33;;;3.30;99.90;;;;;;20912829;28;20474;-51
2023/03/11 23:37:47;;;;;;;39.83;22.98;;;3.40;99.90;;;;;;20911913;28;20032;-56
2023/03/11 23:47:49;;;;;;;42.75;22.70;;;3.40;99.90;;;;;;20911825;28;20036;-47
2023/03/11 23:57:51;;;;;;;49.20;24.63;;;3.20;99.90;;;;;;20910667;28;20033;-55
